PAEN/ENA METAR and TAF weather

Enter ICAO airport designator
Station Type Date Time Source
PAEN METAR 2020/07/06 23:53 UTC NOAA

PAEN 062353Z 23010KT 10SM OVC010 14/11 A3001 RMK AO2 SLP163 T01440106 10161 20128 56004


Station Type Date Time Source
PAEN Decoded METAR 2020/07/06 23:53 UTC NOAA

KENAI MUNICIPAL AIRPORT, AK, United States (PAEN) 60-35N 151-14W 25M
Jul 06, 2020 - 07:53 PM EDT / 2020.07.06 2353 UTC
Wind: from the SW (230 degrees) at 12 MPH (10 KT):0
Visibility: 10 mile(s):0
Sky conditions: overcast
Temperature: 57.9 F (14.4 C)
Dew Point: 51.1 F (10.6 C)
Relative Humidity: 77%
Pressure (altimeter): 30.01 in. Hg (1016 hPa)
Pressure tendency: 0.01 inches (0.4 hPa) lower than three hours ago
ob: PAEN 062353Z 23010KT 10SM OVC010 14/11 A3001 RMK AO2 SLP163 T01440106 10161 20128 56004
cycle: 0

Station Type Date Time Source
PAEN TAF 2020/07/06 21:09 UTC NOAA

TAF
AMD PAEN 062106Z 0621/0718 20008KT P6SM BKN009
FM070000 20010KT P6SM FEW010 BKN020
FM070800 21010KT P6SM OVC007

Example: see airport list